createdAt,value
2019-03-08T00:03:57.822Z,2.68
2019-03-08T00:09:05.661Z,2.99
2019-03-08T00:14:13.317Z,3.00
2019-03-08T00:19:20.950Z,3.64
2019-03-08T00:24:28.616Z,3.40
2019-03-08T00:29:36.322Z,3.13
2019-03-08T00:34:43.947Z,3.23
2019-03-08T00:39:51.570Z,3.10
2019-03-08T00:44:59.354Z,2.96
2019-03-08T00:50:07.105Z,2.68
2019-03-08T00:55:14.795Z,2.48
2019-03-08T01:00:22.431Z,2.79
2019-03-08T01:05:30.538Z,2.81
2019-03-08T01:10:39.131Z,3.48
2019-03-08T01:15:46.889Z,2.91
2019-03-08T01:20:54.501Z,2.86
2019-03-08T01:26:02.487Z,3.13
2019-03-08T01:31:10.349Z,2.56
2019-03-08T01:36:17.962Z,2.34
2019-03-08T01:41:25.731Z,2.98
2019-03-08T01:46:33.782Z,3.09
2019-03-08T01:51:41.448Z,2.70
2019-03-08T01:56:49.081Z,3.61
2019-03-08T02:01:56.889Z,2.46
2019-03-08T02:07:04.462Z,4.35
2019-03-08T02:12:12.181Z,3.25
2019-03-08T02:17:19.734Z,4.46
2019-03-08T02:22:27.313Z,3.54
2019-03-08T02:27:35.102Z,2.10
2019-03-08T02:32:42.685Z,2.52
2019-03-08T02:37:50.357Z,1.91
2019-03-08T02:42:57.972Z,1.54
2019-03-08T02:48:05.723Z,2.10
2019-03-08T02:53:13.413Z,1.61
2019-03-08T02:58:21.197Z,1.90
2019-03-08T03:03:28.813Z,2.06
2019-03-08T03:08:36.641Z,2.21
2019-03-08T03:13:44.228Z,2.08
2019-03-08T03:18:51.902Z,1.87
2019-03-08T03:23:59.531Z,1.43
2019-03-08T03:29:07.261Z,1.29
2019-03-08T03:34:14.861Z,2.34
2019-03-08T03:39:22.493Z,1.42
2019-03-08T03:44:30.985Z,1.72
2019-03-08T03:49:38.845Z,2.00
2019-03-08T03:54:46.894Z,2.12
2019-03-08T03:59:54.572Z,1.65
2019-03-08T04:05:02.283Z,1.59
2019-03-08T04:10:10.137Z,1.67
2019-03-08T04:15:17.752Z,6.00
2019-03-08T04:20:25.505Z,7.69
2019-03-08T04:25:33.154Z,6.08
2019-03-08T04:30:40.863Z,7.37
2019-03-08T04:35:48.521Z,5.95
2019-03-08T04:40:56.308Z,6.33
2019-03-08T04:46:03.949Z,8.11
2019-03-08T04:51:11.789Z,6.30
2019-03-08T04:56:19.491Z,6.41
2019-03-08T05:01:27.257Z,7.86
2019-03-08T05:06:34.874Z,6.32
2019-03-08T05:11:42.694Z,6.01
2019-03-08T05:16:50.308Z,6.74
2019-03-08T05:21:58.025Z,6.84
2019-03-08T05:27:05.646Z,5.28
2019-03-08T05:32:13.478Z,4.94
2019-03-08T05:37:21.166Z,11.60
2019-03-08T05:42:28.898Z,12.08
2019-03-08T05:47:36.593Z,14.50
2019-03-08T05:52:44.247Z,14.15
2019-03-08T05:57:51.838Z,18.20
2019-03-08T06:02:59.605Z,18.51
2019-03-08T06:08:07.215Z,18.71
2019-03-08T06:13:15.003Z,18.79
2019-03-08T06:18:22.622Z,21.83
2019-03-08T06:23:30.481Z,16.37
2019-03-08T06:28:38.389Z,21.49
2019-03-08T06:33:46.109Z,22.22
2019-03-08T06:38:53.849Z,16.45
2019-03-08T06:44:01.596Z,21.61
2019-03-08T06:49:09.297Z,17.74
2019-03-08T06:54:17.034Z,18.90
2019-03-08T06:59:24.661Z,21.30
2019-03-08T07:04:32.346Z,21.25
2019-03-08T07:09:40.041Z,18.19
2019-03-08T07:14:47.737Z,20.89
2019-03-08T07:19:55.420Z,17.59
2019-03-08T07:25:03.121Z,17.36
2019-03-08T07:30:10.815Z,18.26
2019-03-08T07:35:18.522Z,16.19
2019-03-08T07:40:26.104Z,18.41
2019-03-08T07:45:33.825Z,13.09
2019-03-08T07:50:41.489Z,17.57
2019-03-08T07:55:49.257Z,14.29
2019-03-08T08:00:56.901Z,9.57
2019-03-08T08:06:05.556Z,15.27
2019-03-08T08:11:13.156Z,12.62
2019-03-08T08:16:20.872Z,11.19
2019-03-08T08:21:28.661Z,12.21
2019-03-08T08:26:36.382Z,11.84
2019-03-08T08:31:43.969Z,12.82
2019-03-08T08:36:51.666Z,12.68
2019-03-08T08:41:59.315Z,10.41
2019-03-08T08:47:06.985Z,11.14
2019-03-08T08:52:14.639Z,10.53
2019-03-08T08:57:22.198Z,9.68
2019-03-08T09:02:29.901Z,10.75
2019-03-08T09:07:37.601Z,12.09
2019-03-08T09:12:45.265Z,13.93
2019-03-08T09:17:53.030Z,10.80
2019-03-08T09:23:00.605Z,10.71
2019-03-08T09:28:08.345Z,10.53
2019-03-08T09:33:15.931Z,12.14
2019-03-08T09:38:23.636Z,14.94
2019-03-08T09:43:31.221Z,12.55
2019-03-08T09:48:38.976Z,12.47
2019-03-08T09:53:46.109Z,10.24
2019-03-08T09:58:53.902Z,9.36
2019-03-08T10:04:01.593Z,9.44
2019-03-08T10:09:09.257Z,9.74
2019-03-08T10:14:16.924Z,8.72
2019-03-08T10:19:24.689Z,9.08
2019-03-08T10:24:32.365Z,7.94
2019-03-08T10:29:40.046Z,11.01
2019-03-08T10:34:47.634Z,9.45
2019-03-08T10:39:55.369Z,11.05
2019-03-08T10:45:02.987Z,10.16
2019-03-08T10:50:10.745Z,10.41
2019-03-08T10:55:18.350Z,9.44
2019-03-08T11:00:26.058Z,9.87
2019-03-08T11:05:33.730Z,9.50
2019-03-08T11:10:41.359Z,13.47
2019-03-08T11:15:49.098Z,9.23
2019-03-08T11:20:56.764Z,11.29
2019-03-08T11:26:04.477Z,11.37
2019-03-08T11:31:12.166Z,11.63
2019-03-08T11:36:19.906Z,11.44
2019-03-08T11:41:28.629Z,12.14
2019-03-08T11:46:36.357Z,12.49
2019-03-08T11:51:44.137Z,12.17
2019-03-08T11:56:56.119Z,10.49
2019-03-08T12:01:59.969Z,11.61
2019-03-08T12:07:07.668Z,13.43
2019-03-08T12:12:16.106Z,10.34
2019-03-08T12:17:23.814Z,8.98
2019-03-08T12:22:31.531Z,12.54
2019-03-08T12:27:39.097Z,11.26
2019-03-08T12:32:46.822Z,11.46
2019-03-08T12:37:54.529Z,14.98
2019-03-08T12:43:07.994Z,14.41
2019-03-08T12:48:09.353Z,10.42
2019-03-08T12:53:24.535Z,8.99
2019-03-08T12:58:21.697Z,9.12
2019-03-08T13:03:29.425Z,9.93
2019-03-08T13:08:37.161Z,12.00
2019-03-08T13:13:44.856Z,9.69
2019-03-08T13:18:52.505Z,9.29
2019-03-08T13:24:00.128Z,11.80
2019-03-08T13:29:08.121Z,12.75
2019-03-08T13:34:15.745Z,10.67
2019-03-08T13:39:23.470Z,9.62
2019-03-08T13:44:31.149Z,13.67
2019-03-08T13:49:38.989Z,12.47
2019-03-08T13:54:46.618Z,9.60
2019-03-08T13:59:54.342Z,10.62
2019-03-08T14:05:02.037Z,10.63
2019-03-08T14:10:09.997Z,8.88
2019-03-08T14:15:17.616Z,11.33
2019-03-08T14:20:26.148Z,10.38
2019-03-08T14:25:33.894Z,8.41
2019-03-08T14:30:42.521Z,6.39
2019-03-08T14:35:50.209Z,6.62
2019-03-08T14:40:59.017Z,7.66
2019-03-08T14:46:05.112Z,7.26
2019-03-08T14:51:13.148Z,8.30
2019-03-08T14:56:20.474Z,10.03
2019-03-08T15:01:28.291Z,7.91
2019-03-08T15:06:36.707Z,10.92
2019-03-08T15:11:44.431Z,9.14
2019-03-08T15:16:52.017Z,12.06
2019-03-08T15:21:59.718Z,13.80
2019-03-08T15:27:07.370Z,8.80
2019-03-08T15:32:15.013Z,9.10
2019-03-08T15:37:22.744Z,8.83
2019-03-08T15:42:30.456Z,13.78
2019-03-08T15:47:38.122Z,9.32
2019-03-08T15:52:45.837Z,8.17
2019-03-08T15:57:53.532Z,8.60
2019-03-08T16:03:01.487Z,8.29
2019-03-08T16:08:09.184Z,8.43
2019-03-08T16:13:16.906Z,9.07
2019-03-08T16:18:24.529Z,10.28
2019-03-08T16:23:32.098Z,8.65
2019-03-08T16:28:39.694Z,10.53
2019-03-08T16:33:47.370Z,10.63
2019-03-08T16:38:55.141Z,9.74
2019-03-08T16:44:03.024Z,11.71
2019-03-08T16:49:10.669Z,10.09
2019-03-08T16:54:18.405Z,10.56
2019-03-08T16:59:25.990Z,9.35
2019-03-08T17:04:33.729Z,9.98
2019-03-08T17:09:42.797Z,10.71
2019-03-08T17:14:48.721Z,7.71
2019-03-08T17:19:56.369Z,8.28
2019-03-08T17:25:04.086Z,6.89
2019-03-08T17:30:11.657Z,10.23
2019-03-08T17:35:19.357Z,6.84
2019-03-08T17:40:28.053Z,7.42
2019-03-08T17:45:34.313Z,6.97
2019-03-08T17:50:41.989Z,9.75
2019-03-08T17:55:51.412Z,12.76
2019-03-08T18:00:56.755Z,10.56
2019-03-08T18:06:04.425Z,7.08
2019-03-08T18:11:12.038Z,7.20
2019-03-08T18:16:19.689Z,8.01
2019-03-08T18:21:27.329Z,9.20
2019-03-08T18:26:36.658Z,7.10
2019-03-08T18:31:42.442Z,6.72
2019-03-08T18:36:50.127Z,7.48
2019-03-08T18:41:57.905Z,8.90
2019-03-08T18:47:05.952Z,7.80
2019-03-08T18:52:13.671Z,7.74
2019-03-08T18:57:21.483Z,7.31
2019-03-08T19:02:29.098Z,7.67
2019-03-08T19:07:37.022Z,8.27
2019-03-08T19:12:45.613Z,6.64
2019-03-08T19:17:53.209Z,8.00
2019-03-08T19:23:00.818Z,6.85
2019-03-08T19:28:08.422Z,9.87
2019-03-08T19:33:16.137Z,9.99
2019-03-08T19:38:23.749Z,7.46
2019-03-08T19:43:31.454Z,9.62
2019-03-08T19:48:39.196Z,8.59
2019-03-08T19:53:46.862Z,7.04
2019-03-08T19:58:54.522Z,9.31
2019-03-08T20:04:02.186Z,11.09
2019-03-08T20:09:09.857Z,9.66
2019-03-08T20:14:17.495Z,8.31
2019-03-08T20:19:25.733Z,10.11
2019-03-08T20:24:33.854Z,8.34
2019-03-08T20:29:40.802Z,8.75
2019-03-08T20:34:48.694Z,10.62
2019-03-08T20:39:57.124Z,10.23
2019-03-08T20:45:05.253Z,9.63
2019-03-08T20:50:13.343Z,11.91
2019-03-08T20:55:21.444Z,8.05
2019-03-08T21:00:29.118Z,8.68
2019-03-08T21:05:36.806Z,7.78
2019-03-08T21:10:44.569Z,8.98
2019-03-08T21:15:52.372Z,7.63
2019-03-08T21:21:00.152Z,8.70
2019-03-08T21:26:08.034Z,7.54
2019-03-08T21:31:15.653Z,8.36
2019-03-08T21:36:23.350Z,6.43
2019-03-08T21:41:31.021Z,7.91
2019-03-08T21:46:38.734Z,7.94
2019-03-08T21:51:46.339Z,8.61
2019-03-08T21:56:54.093Z,7.22
2019-03-08T22:02:01.822Z,8.02
2019-03-08T22:07:09.533Z,5.64
2019-03-08T22:12:17.146Z,7.52
2019-03-08T22:17:24.777Z,6.54
2019-03-08T22:22:32.443Z,5.97
2019-03-08T22:27:40.044Z,4.66
2019-03-08T22:32:47.872Z,5.84
2019-03-08T22:37:55.630Z,5.40
2019-03-08T22:43:03.377Z,7.86
2019-03-08T22:48:11.058Z,5.91
2019-03-08T22:53:18.826Z,8.34
2019-03-08T22:58:26.431Z,7.84
2019-03-08T23:03:34.021Z,8.80
2019-03-08T23:08:41.650Z,9.86
2019-03-08T23:13:49.309Z,10.89
2019-03-08T23:18:57.065Z,9.48
2019-03-08T23:24:04.853Z,9.59
2019-03-08T23:29:12.474Z,9.99
2019-03-08T23:34:20.147Z,10.30
2019-03-08T23:39:27.825Z,11.00
2019-03-08T23:44:35.518Z,11.35
2019-03-08T23:49:43.286Z,9.05
2019-03-08T23:54:50.931Z,8.73
2019-03-08T23:59:59.684Z,8.26
